Time;durP1;ratioP1;P1;durP2;ratioP2;P2;SDS_P1;SDS_P2;PMS_P1;PMS_P2;Temp;Humidity;BMP_temperature;BMP_pressure;BME280_temperature;BME280_humidity;BME280_pressure;Samples;Min_cycle;Max_cycle;Signal;HPM_P1;HPM_P2
2023/07/29 00:01:15;;;;;;;;;;;19.00;99.90;;;;;;5017168;28;19925;-71
2023/07/29 00:03:43;;;;;;;;;;;19.10;99.90;;;;;;5026680;28;19971;-71
2023/07/29 00:06:11;;;;;;;;;;;19.20;99.90;;;;;;5011847;28;19925;-69
2023/07/29 00:08:39;;;;;;;;;;;19.20;99.90;;;;;;5011739;28;19922;-69
2023/07/29 00:11:07;;;;;;;;;;;19.20;99.90;;;;;;5017400;28;20403;-69
2023/07/29 00:13:36;;;;;;;;;;;19.20;99.90;;;;;;5015441;28;20523;-69
2023/07/29 00:16:04;;;;;;;;;;;19.30;99.90;;;;;;5012871;28;19921;-68
2023/07/29 00:18:32;;;;;;;;;;;19.30;99.90;;;;;;5011602;28;20441;-69
2023/07/29 00:21:00;;;;;;;;;;;19.30;99.90;;;;;;5009993;28;19927;-69
2023/07/29 00:23:28;;;;;;;;;;;19.30;99.90;;;;;;5011641;28;19944;-69
2023/07/29 00:25:55;;;;;;;;;;;19.30;99.90;;;;;;5011590;28;19928;-69
2023/07/29 00:28:23;;;;;;;;;;;19.40;99.90;;;;;;5010528;28;20443;-70
2023/07/29 00:30:52;;;;;;;;;;;19.30;99.90;;;;;;5011669;28;20343;-69
2023/07/29 00:33:21;;;;;;;;;;;19.30;99.90;;;;;;5026334;28;19999;-70
2023/07/29 00:35:48;;;;;;;;;;;19.20;99.90;;;;;;5014712;28;19921;-70
2023/07/29 00:38:16;;;;;;;;;;;19.10;99.90;;;;;;5012267;28;19999;-69
2023/07/29 00:40:44;;;;;;;;;;;19.20;99.90;;;;;;5001769;28;19921;-70
2023/07/29 00:43:12;;;;;;;;;;;19.30;99.90;;;;;;5005749;28;19928;-70
2023/07/29 00:45:39;;;;;;;;;;;19.20;99.90;;;;;;5011313;28;19922;-72
2023/07/29 00:48:08;;;;;;;;;;;19.20;99.90;;;;;;5008589;28;21103;-72
2023/07/29 00:50:36;;;;;;;;;;;19.20;99.90;;;;;;5013483;28;19921;-72
2023/07/29 00:53:04;;;;;;;;;;;19.30;99.90;;;;;;5009915;28;20000;-72
2023/07/29 00:55:32;;;;;;;;;;;19.30;99.90;;;;;;5012052;28;19929;-71
2023/07/29 00:58:00;;;;;;;;;;;19.30;99.90;;;;;;5013924;28;19925;-72
2023/07/29 01:00:28;;;;;;;;;;;19.30;99.90;;;;;;5018996;28;19930;-73
2023/07/29 01:02:56;;;;;;;;;;;19.30;99.90;;;;;;5013696;28;20365;-72
2023/07/29 01:05:29;;;;;;;;;;;19.20;99.90;;;;;;5008840;28;19922;-72
2023/07/29 01:08:00;;;;;;;;;;;19.30;99.90;;;;;;5012943;28;20384;-72
2023/07/29 01:10:33;;;;;;;;;;;19.40;99.90;;;;;;5006601;28;19925;-72
2023/07/29 01:13:05;;;;;;;;;;;19.40;99.90;;;;;;5008482;28;19926;-72
2023/07/29 01:15:34;;;;;;;;;;;19.40;99.90;;;;;;5014174;28;19925;-72
2023/07/29 01:18:05;;;;;;;;;;;19.30;99.90;;;;;;5007363;28;19932;-72
2023/07/29 01:20:36;;;;;;;;;;;19.40;99.90;;;;;;5012930;28;20073;-72
2023/07/29 01:23:04;;;;;;;;;;;19.30;99.90;;;;;;5013627;28;19933;-72
2023/07/29 01:25:33;;;;;;;;;;;19.30;99.90;;;;;;5016432;28;19922;-72
2023/07/29 01:28:01;;;;;;;;;;;19.30;99.90;;;;;;5010377;28;19926;-72
2023/07/29 01:30:31;;;;;;;;;;;19.20;99.90;;;;;;5010440;28;19928;-72
2023/07/29 01:33:01;;;;;;;;;;;19.10;99.90;;;;;;5014772;28;19940;-73
2023/07/29 01:35:32;;;;;;;;;;;19.10;99.90;;;;;;5017112;28;19921;-72
2023/07/29 01:38:02;;;;;;;;;;;19.10;99.90;;;;;;5008546;28;19928;-72
2023/07/29 01:40:30;;;;;;;;;;;19.20;99.90;;;;;;5020496;28;19925;-72
2023/07/29 01:42:59;;;;;;;;;;;19.20;99.90;;;;;;5018539;28;19971;-72
2023/07/29 01:45:27;;;;;;;;;;;19.20;99.90;;;;;;5013881;28;19921;-73
2023/07/29 01:47:55;;;;;;;;;;;19.10;99.90;;;;;;5011932;28;20019;-73
2023/07/29 01:50:22;;;;;;;;;;;19.00;99.90;;;;;;5012798;28;20308;-73
2023/07/29 01:52:50;;;;;;;;;;;19.10;99.90;;;;;;5013015;28;19958;-73
2023/07/29 01:55:18;;;;;;;;;;;19.00;99.90;;;;;;5015255;28;19925;-73
2023/07/29 01:57:46;;;;;;;;;;;19.00;99.90;;;;;;5011071;28;20406;-71
2023/07/29 02:00:15;;;;;;;;;;;19.00;99.90;;;;;;5015074;28;19921;-72
2023/07/29 02:02:43;;;;;;;;;;;19.00;99.90;;;;;;5008726;28;19921;-73
2023/07/29 02:05:11;;;;;;;;;;;19.00;99.90;;;;;;5012990;28;19921;-72
2023/07/29 02:07:39;;;;;;;;;;;19.00;99.90;;;;;;5015686;28;19925;-72
2023/07/29 02:10:07;;;;;;;;;;;19.00;99.90;;;;;;5008641;28;19936;-72
2023/07/29 02:12:35;;;;;;;;;;;19.00;99.90;;;;;;5011746;28;19925;-73
2023/07/29 02:15:03;;;;;;;;;;;19.00;99.90;;;;;;5011958;28;19940;-72
2023/07/29 02:17:32;;;;;;;;;;;19.00;99.90;;;;;;5013646;28;19976;-72
2023/07/29 02:20:00;;;;;;;;;;;19.10;99.90;;;;;;5010564;28;19921;-73
2023/07/29 02:22:28;;;;;;;;;;;19.10;99.90;;;;;;5013843;28;20311;-72
2023/07/29 02:24:56;;;;;;;;;;;19.20;99.90;;;;;;5013910;28;20323;-73
2023/07/29 02:27:25;;;;;;;;;;;19.30;99.90;;;;;;5013778;28;19922;-73
2023/07/29 02:29:53;;;;;;;;;;;19.30;99.90;;;;;;5014003;28;20016;-72
2023/07/29 02:32:20;;;;;;;;;;;19.30;99.90;;;;;;5023887;28;19921;-73
2023/07/29 02:34:49;;;;;;;;;;;19.40;99.90;;;;;;5022742;28;19975;-73
2023/07/29 02:37:17;;;;;;;;;;;19.40;99.90;;;;;;5017332;28;19922;-73
2023/07/29 02:39:45;;;;;;;;;;;19.50;99.90;;;;;;5010193;28;19929;-73
2023/07/29 02:42:13;;;;;;;;;;;19.50;99.90;;;;;;5007821;28;20293;-74
2023/07/29 02:44:41;;;;;;;;;;;19.50;99.90;;;;;;5011081;28;19926;-75
2023/07/29 02:47:09;;;;;;;;;;;19.50;99.90;;;;;;5020193;28;19983;-74
2023/07/29 02:49:36;;;;;;;;;;;19.50;99.90;;;;;;5013666;28;19921;-73
2023/07/29 02:52:06;;;;;;;;;;;19.50;99.90;;;;;;5022695;28;19975;-74
2023/07/29 02:54:34;;;;;;;;;;;19.40;99.90;;;;;;5023877;28;19945;-76
2023/07/29 02:57:01;;;;;;;;;;;19.40;99.90;;;;;;5015148;28;20291;-75
2023/07/29 02:59:29;;;;;;;;;;;19.40;99.90;;;;;;5023228;28;20395;-73
2023/07/29 03:01:57;;;;;;;;;;;19.50;99.90;;;;;;5016200;28;19928;-73
2023/07/29 03:04:25;;;;;;;;;;;19.50;99.90;;;;;;5016431;28;19925;-74
2023/07/29 03:06:53;;;;;;;;;;;19.40;99.90;;;;;;5016444;28;19921;-74
2023/07/29 03:09:22;;;;;;;;;;;19.40;99.90;;;;;;5020651;28;19967;-74
2023/07/29 03:11:50;;;;;;;;;;;19.40;99.90;;;;;;5017926;28;19924;-74
2023/07/29 03:14:18;;;;;;;;;;;19.40;99.90;;;;;;5012811;28;20315;-74
2023/07/29 03:16:46;;;;;;;;;;;19.40;99.90;;;;;;5017044;28;19921;-74
2023/07/29 03:19:16;;;;;;;;;;;19.30;99.90;;;;;;5012657;28;19921;-74
2023/07/29 03:21:43;;;;;;;;;;;19.20;99.90;;;;;;5012165;28;20403;-74
2023/07/29 03:24:11;;;;;;;;;;;19.20;99.90;;;;;;5012214;28;19921;-74
2023/07/29 03:26:40;;;;;;;;;;;19.30;99.90;;;;;;5018375;28;20011;-76
2023/07/29 03:29:12;;;;;;;;;;;19.30;99.90;;;;;;5012729;28;20392;-76
2023/07/29 03:31:40;;;;;;;;;;;19.30;99.90;;;;;;5014128;28;20048;-75
2023/07/29 03:34:07;;;;;;;;;;;19.20;99.90;;;;;;5016521;28;19967;-74
2023/07/29 03:36:35;;;;;;;;;;;19.10;99.90;;;;;;5014150;28;19921;-74
2023/07/29 03:39:04;;;;;;;;;;;19.10;99.90;;;;;;5008131;28;19961;-76
2023/07/29 03:41:32;;;;;;;;;;;19.10;99.90;;;;;;5017585;28;19921;-75
2023/07/29 03:44:01;;;;;;;;;;;19.10;99.90;;;;;;5015032;28;19995;-75
2023/07/29 03:46:29;;;;;;;;;;;19.10;99.90;;;;;;5024303;28;20285;-75
2023/07/29 03:48:57;;;;;;;;;;;19.10;99.90;;;;;;5012704;28;19972;-76
2023/07/29 03:51:25;;;;;;;;;;;19.10;99.90;;;;;;5010964;28;19928;-76
2023/07/29 03:53:53;;;;;;;;;;;19.20;99.90;;;;;;5015606;28;19924;-75
2023/07/29 03:56:20;;;;;;;;;;;19.20;99.90;;;;;;5022968;28;19925;-75
2023/07/29 03:58:49;;;;;;;;;;;19.20;99.90;;;;;;5013922;28;19952;-75
2023/07/29 04:01:18;;;;;;;;;;;19.20;99.90;;;;;;5016194;28;20004;-74
2023/07/29 04:03:46;;;;;;;;;;;19.20;99.90;;;;;;5009723;28;20277;-76
2023/07/29 04:06:14;;;;;;;;;;;19.20;99.90;;;;;;5009954;28;20215;-76
2023/07/29 04:08:42;;;;;;;;;;;19.20;99.90;;;;;;5007761;28;19921;-73
2023/07/29 04:11:10;;;;;;;;;;;19.10;99.90;;;;;;5010825;28;19921;-74
2023/07/29 04:13:38;;;;;;;;;;;19.10;99.90;;;;;;5008468;28;19921;-74
2023/07/29 04:16:06;;;;;;;;;;;19.10;99.90;;;;;;5007914;28;19972;-74
2023/07/29 04:18:35;;;;;;;;;;;19.20;99.90;;;;;;5008884;28;19921;-74
2023/07/29 04:21:02;;;;;;;;;;;19.20;99.90;;;;;;5010459;28;19929;-74
2023/07/29 04:23:30;;;;;;;;;;;19.20;99.90;;;;;;5009681;28;19925;-74
2023/07/29 04:25:58;;;;;;;;;;;19.20;99.90;;;;;;5008418;28;19929;-74
2023/07/29 04:28:26;;;;;;;;;;;19.20;99.90;;;;;;5007666;28;19921;-75
2023/07/29 04:30:55;;;;;;;;;;;19.20;99.90;;;;;;5007949;28;19929;-75
2023/07/29 04:33:22;;;;;;;;;;;19.20;99.90;;;;;;5015775;28;19928;-73
2023/07/29 04:35:52;;;;;;;;;;;19.20;99.90;;;;;;5007596;28;19928;-74
2023/07/29 04:38:19;;;;;;;;;;;19.20;99.90;;;;;;5011276;28;19928;-74
2023/07/29 04:40:49;;;;;;;;;;;19.20;99.90;;;;;;5012106;28;19921;-74
2023/07/29 04:43:17;;;;;;;;;;;19.20;99.90;;;;;;5013092;28;19925;-74
2023/07/29 04:45:45;;;;;;;;;;;19.20;99.90;;;;;;5015576;28;19921;-74
2023/07/29 04:48:13;;;;;;;;;;;19.20;99.90;;;;;;5009457;28;19921;-73
2023/07/29 04:50:41;;;;;;;;;;;19.10;99.90;;;;;;5017976;28;19929;-75
2023/07/29 04:53:10;;;;;;;;;;;19.00;99.90;;;;;;5017130;28;19925;-75
2023/07/29 04:55:38;;;;;;;;;;;19.10;99.90;;;;;;5016821;28;20059;-75
2023/07/29 04:58:06;;;;;;;;;;;19.10;99.90;;;;;;5004128;28;19929;-75
2023/07/29 05:00:34;;;;;;;;;;;19.10;99.90;;;;;;5006890;28;19932;-75
2023/07/29 05:03:02;;;;;;;;;;;19.10;99.90;;;;;;5006051;28;19926;-74
2023/07/29 05:05:30;;;;;;;;;;;19.10;99.90;;;;;;5009833;28;20113;-72
2023/07/29 05:07:57;;;;;;;;;;;19.00;99.90;;;;;;5017918;28;19928;-73
2023/07/29 05:10:27;;;;;;;;;;;19.00;99.90;;;;;;5017378;28;19921;-72
2023/07/29 05:12:54;;;;;;;;;;;19.00;99.90;;;;;;5018761;28;19921;-73
2023/07/29 05:15:22;;;;;;;;;;;19.00;99.90;;;;;;5012388;28;19925;-72
2023/07/29 05:17:50;;;;;;;;;;;19.00;99.90;;;;;;5012407;28;20324;-72
2023/07/29 05:20:18;;;;;;;;;;;18.90;99.90;;;;;;5028301;28;20399;-72
2023/07/29 05:22:45;;;;;;;;;;;18.90;99.90;;;;;;5012580;28;19975;-73
2023/07/29 05:25:13;;;;;;;;;;;18.90;99.90;;;;;;5011957;28;19934;-74
2023/07/29 05:27:42;;;;;;;;;;;19.00;99.90;;;;;;5019223;28;19933;-73
2023/07/29 05:30:10;;;;;;;;;;;19.00;99.90;;;;;;5012345;28;19975;-71
2023/07/29 05:32:38;;;;;;;;;;;19.00;99.90;;;;;;5014620;28;19921;-71
2023/07/29 05:35:07;;;;;;;;;;;19.00;99.90;;;;;;5012799;28;19987;-71
2023/07/29 05:37:34;;;;;;;;;;;18.90;99.90;;;;;;5011567;28;19928;-73
2023/07/29 05:40:02;;;;;;;;;;;19.00;99.90;;;;;;5012113;28;20363;-73
2023/07/29 05:42:30;;;;;;;;;;;19.00;99.90;;;;;;5009669;28;20305;-72
2023/07/29 05:44:59;;;;;;;;;;;19.00;99.90;;;;;;5011312;28;20277;-72
2023/07/29 05:47:27;;;;;;;;;;;19.10;99.90;;;;;;5009290;28;19925;-73
2023/07/29 05:49:55;;;;;;;;;;;19.20;99.90;;;;;;5008649;28;19928;-72
2023/07/29 05:52:23;;;;;;;;;;;19.30;99.90;;;;;;5009543;28;19930;-72
2023/07/29 05:54:51;;;;;;;;;;;19.30;99.90;;;;;;5009564;28;19925;-71
2023/07/29 05:57:18;;;;;;;;;;;19.40;99.90;;;;;;5010792;28;20461;-72
2023/07/29 05:59:52;;;;;;;;;;;19.40;99.90;;;;;;5013337;28;19929;-72
2023/07/29 06:02:21;;;;;;;;;;;19.40;99.90;;;;;;5015523;28;19921;-72
2023/07/29 06:04:49;;;;;;;;;;;19.40;99.90;;;;;;5012753;28;19922;-70
2023/07/29 06:07:16;;;;;;;;;;;19.40;99.90;;;;;;5009507;28;20411;-70
2023/07/29 06:09:44;;;;;;;;;;;19.40;99.90;;;;;;5010163;28;19921;-70
2023/07/29 06:12:12;;;;;;;;;;;19.40;99.90;;;;;;5013626;28;19921;-72
2023/07/29 06:14:40;;;;;;;;;;;19.40;99.90;;;;;;5013365;28;20020;-73
2023/07/29 06:17:11;;;;;;;;;;;19.30;99.90;;;;;;5011096;28;19925;-75
2023/07/29 06:19:40;;;;;;;;;;;19.20;99.90;;;;;;5013502;28;19921;-75
2023/07/29 06:22:08;;;;;;;;;;;19.20;99.90;;;;;;5009220;28;19921;-75
2023/07/29 06:24:36;;;;;;;;;;;19.30;99.90;;;;;;5013267;28;19928;-74
2023/07/29 06:27:04;;;;;;;;;;;19.30;99.90;;;;;;5011296;28;19956;-74
2023/07/29 06:29:31;;;;;;;;;;;19.20;99.90;;;;;;5013199;28;19925;-75
2023/07/29 06:31:59;;;;;;;;;;;19.20;99.90;;;;;;5017202;28;19925;-74
2023/07/29 06:34:27;;;;;;;;;;;19.10;99.90;;;;;;5011853;28;19933;-76
2023/07/29 06:36:56;;;;;;;;;;;19.20;99.90;;;;;;5012267;28;20284;-74
2023/07/29 06:39:24;;;;;;;;;;;19.10;99.90;;;;;;5009281;28;19967;-74
2023/07/29 06:41:52;;;;;;;;;;;19.20;99.90;;;;;;5012834;28;19921;-75
2023/07/29 06:44:20;;;;;;;;;;;19.20;99.90;;;;;;5011875;28;19948;-76
2023/07/29 06:46:48;;;;;;;;;;;19.20;99.90;;;;;;5011113;28;19922;-75
2023/07/29 06:49:15;;;;;;;;;;;19.20;99.90;;;;;;5011599;28;20380;-76
2023/07/29 06:51:43;;;;;;;;;;;19.20;99.90;;;;;;5011001;28;19925;-75
2023/07/29 06:54:13;;;;;;;;;;;19.10;99.90;;;;;;5015340;28;19929;-74
2023/07/29 06:56:41;;;;;;;;;;;19.10;99.90;;;;;;5009741;28;19929;-75
2023/07/29 06:59:09;;;;;;;;;;;19.00;99.90;;;;;;5003928;28;19933;-75
2023/07/29 07:01:36;;;;;;;;;;;19.00;99.90;;;;;;5009057;28;19933;-75
2023/07/29 07:04:04;;;;;;;;;;;18.90;99.90;;;;;;5008643;28;19941;-75
2023/07/29 07:06:32;;;;;;;;;;;18.90;99.90;;;;;;5014217;28;19947;-74
2023/07/29 07:09:00;;;;;;;;;;;18.90;99.90;;;;;;5009072;28;20327;-75
2023/07/29 07:11:29;;;;;;;;;;;18.90;99.90;;;;;;5009749;28;19933;-75
2023/07/29 07:13:57;;;;;;;;;;;18.90;99.90;;;;;;5007821;28;20462;-74
2023/07/29 07:16:25;;;;;;;;;;;18.90;99.90;;;;;;5013189;28;19921;-76
2023/07/29 07:18:53;;;;;;;;;;;18.90;99.90;;;;;;5011237;28;19921;-76
2023/07/29 07:21:20;;;;;;;;;;;19.00;99.90;;;;;;5013698;28;19924;-76
2023/07/29 07:23:50;;;;;;;;;;;18.90;99.90;;;;;;5012614;28;19936;-75
2023/07/29 07:26:17;;;;;;;;;;;18.90;99.90;;;;;;5012851;28;19929;-76
2023/07/29 07:28:46;;;;;;;;;;;19.00;99.90;;;;;;5013339;28;19935;-76
2023/07/29 07:31:16;;;;;;;;;;;19.10;99.90;;;;;;5016608;28;19929;-75
2023/07/29 07:33:47;;;;;;;;;;;19.10;99.90;;;;;;5010898;28;19929;-75
2023/07/29 07:36:15;;;;;;;;;;;19.10;99.90;;;;;;5011543;28;19936;-76
2023/07/29 07:38:43;;;;;;;;;;;19.10;99.90;;;;;;5012534;28;19924;-75
2023/07/29 07:41:11;;;;;;;;;;;19.20;99.90;;;;;;5015350;28;19929;-74
2023/07/29 07:43:39;;;;;;;;;;;19.20;99.90;;;;;;5007568;28;19929;-74
2023/07/29 07:46:08;;;;;;;;;;;19.20;99.90;;;;;;5011525;28;20859;-74
2023/07/29 07:48:36;;;;;;;;;;;19.20;99.90;;;;;;5012161;28;19925;-75
2023/07/29 07:51:10;;;;;;;;;;;19.20;99.90;;;;;;5010361;28;19962;-74
2023/07/29 07:53:38;;;;;;;;;;;19.20;99.90;;;;;;5007868;28;19983;-75
2023/07/29 07:56:06;;;;;;;;;;;19.20;99.90;;;;;;5009483;28;20366;-74
2023/07/29 07:58:34;;;;;;;;;;;19.20;99.90;;;;;;5012352;28;19929;-74
2023/07/29 08:01:03;;;;;;;;;;;19.10;99.90;;;;;;5013446;28;20015;-74
2023/07/29 08:03:32;;;;;;;;;;;19.10;99.90;;;;;;5006245;28;19929;-75
2023/07/29 08:06:00;;;;;;;;;;;19.10;99.90;;;;;;5013246;28;19933;-74
2023/07/29 08:08:28;;;;;;;;;;;19.20;99.90;;;;;;5009204;28;19926;-74
2023/07/29 08:10:57;;;;;;;;;;;19.30;99.90;;;;;;5010030;28;20407;-74
2023/07/29 08:13:25;;;;;;;;;;;19.40;99.90;;;;;;5006903;28;20392;-74
2023/07/29 08:15:53;;;;;;;;;;;19.50;99.90;;;;;;5008182;28;19920;-74
2023/07/29 08:18:21;;;;;;;;;;;19.60;99.90;;;;;;5011921;28;19952;-74
2023/07/29 08:20:55;;;;;;;;;;;19.80;99.90;;;;;;5017169;28;19921;-74
2023/07/29 08:23:22;;;;;;;;;;;19.90;99.90;;;;;;5003845;28;19972;-74
2023/07/29 08:25:52;;;;;;;;;;;20.10;99.90;;;;;;5004728;28;20522;-75
2023/07/29 08:28:21;;;;;;;;;;;20.30;99.90;;;;;;5014476;28;19975;-71
2023/07/29 08:30:49;;;;;;;;;;;20.40;99.90;;;;;;5011410;28;20487;-73
2023/07/29 08:33:16;;;;;;;;;;;20.60;99.90;;;;;;5018680;28;19929;-73
2023/07/29 08:35:44;;;;;;;;;;;20.70;99.90;;;;;;5025961;28;19925;-73
2023/07/29 08:38:13;;;;;;;;;;;20.90;99.90;;;;;;5023903;28;19925;-72
2023/07/29 08:40:43;;;;;;;;;;;21.20;99.90;;;;;;5011254;28;19925;-73
2023/07/29 08:43:12;;;;;;;;;;;21.40;99.90;;;;;;5029616;28;19921;-72
2023/07/29 08:45:40;;;;;;;;;;;21.50;99.90;;;;;;5031348;28;19925;-72
2023/07/29 08:48:09;;;;;;;;;;;21.60;99.90;;;;;;5030772;28;19982;-73
2023/07/29 08:50:38;;;;;;;;;;;21.80;99.90;;;;;;5008446;28;20300;-72
2023/07/29 08:53:06;;;;;;;;;;;22.00;99.90;;;;;;5006050;28;19925;-72
2023/07/29 08:55:35;;;;;;;;;;;22.40;99.90;;;;;;5004349;28;19921;-72
2023/07/29 08:58:05;;;;;;;;;;;22.80;99.90;;;;;;5005124;28;20274;-72
2023/07/29 09:00:33;;;;;;;;;;;23.00;99.90;;;;;;5004442;28;20304;-74
2023/07/29 09:03:06;;;;;;;;;;;23.10;99.90;;;;;;5010268;28;19921;-74
2023/07/29 09:05:33;;;;;;;;;;;23.30;99.90;;;;;;5006905;28;20396;-72
2023/07/29 09:08:02;;;;;;;;;;;23.20;99.90;;;;;;5001598;28;19921;-72
2023/07/29 09:10:30;;;;;;;;;;;23.00;99.90;;;;;;5013574;28;19921;-73
2023/07/29 09:13:00;;;;;;;;;;;23.10;99.90;;;;;;5005928;28;20316;-72
2023/07/29 09:15:30;;;;;;;;;;;22.90;99.90;;;;;;5010654;28;19921;-73
2023/07/29 09:17:59;;;;;;;;;;;22.80;99.90;;;;;;5008305;28;19921;-72
2023/07/29 09:20:29;;;;;;;;;;;22.70;99.90;;;;;;5009568;28;19929;-72
2023/07/29 09:22:59;;;;;;;;;;;22.60;99.90;;;;;;5004172;28;19921;-72
2023/07/29 09:25:29;;;;;;;;;;;22.70;99.90;;;;;;5025944;28;20019;-72
2023/07/29 09:28:01;;;;;;;;;;;22.60;99.90;;;;;;5009703;28;20384;-72
2023/07/29 09:30:29;;;;;;;;;;;22.60;99.90;;;;;;5012562;28;19928;-73
2023/07/29 09:32:57;;;;;;;;;;;22.80;99.90;;;;;;5008401;28;19926;-72
2023/07/29 09:35:26;;;;;;;;;;;23.00;99.90;;;;;;5010372;28;20303;-73
2023/07/29 09:37:54;;;;;;;;;;;23.40;99.90;;;;;;5010118;28;19925;-73
2023/07/29 09:40:21;;;;;;;;;;;23.70;99.90;;;;;;5012077;28;20294;-73
2023/07/29 09:42:50;;;;;;;;;;;23.70;99.90;;;;;;5004732;28;19975;-73
2023/07/29 09:45:23;;;;;;;;;;;23.60;99.90;;;;;;5009022;28;20403;-73
2023/07/29 09:47:51;;;;;;;;;;;23.70;99.90;;;;;;5009098;28;19925;-72
2023/07/29 09:50:19;;;;;;;;;;;23.60;99.90;;;;;;5011090;28;19929;-71
2023/07/29 09:52:48;;;;;;;;;;;23.50;99.90;;;;;;5014547;28;19940;-74
2023/07/29 09:55:18;;;;;;;;;;;23.40;99.90;;;;;;5030970;28;19983;-72
2023/07/29 09:57:46;;;;;;;;;;;23.40;99.90;;;;;;5023719;28;19971;-72
2023/07/29 10:00:14;;;;;;;;;;;23.40;99.90;;;;;;5029592;28;19921;-72
2023/07/29 10:02:44;;;;;;;;;;;23.40;99.90;;;;;;5027963;28;19925;-70
2023/07/29 10:05:12;;;;;;;;;;;23.40;99.90;;;;;;5034216;28;19927;-70
2023/07/29 10:07:40;;;;;;;;;;;23.60;99.90;;;;;;5033947;28;19925;-72
2023/07/29 10:10:08;;;;;;;;;;;23.80;99.90;;;;;;5034248;28;19925;-72
2023/07/29 10:12:36;;;;;;;;;;;24.10;99.90;;;;;;5034150;28;20311;-71
2023/07/29 10:15:05;;;;;;;;;;;24.30;99.90;;;;;;5034009;28;19921;-72
2023/07/29 10:17:35;;;;;;;;;;;24.40;99.90;;;;;;5033662;28;19920;-73
2023/07/29 10:20:05;;;;;;;;;;;24.40;99.90;;;;;;5034197;28;19921;-72
2023/07/29 10:22:34;;;;;;;;;;;24.40;99.90;;;;;;5033783;28;20398;-72
2023/07/29 10:25:04;;;;;;;;;;;24.30;99.90;;;;;;5034172;28;19921;-72
2023/07/29 10:27:35;;;;;;;;;;;24.20;99.90;;;;;;5027964;28;19925;-71
2023/07/29 10:30:03;;;;;;;;;;;24.00;99.90;;;;;;5021446;28;19924;-72
2023/07/29 10:32:32;;;;;;;;;;;23.80;99.90;;;;;;5032970;28;19920;-72
2023/07/29 10:35:00;;;;;;;;;;;23.80;99.90;;;;;;5033828;28;19928;-71
2023/07/29 10:37:29;;;;;;;;;;;23.70;99.90;;;;;;5031215;28;19929;-71
2023/07/29 10:39:56;;;;;;;;;;;23.80;99.90;;;;;;5028242;28;19921;-72
2023/07/29 10:42:24;;;;;;;;;;;23.80;99.90;;;;;;5033382;28;19925;-72
2023/07/29 10:44:53;;;;;;;;;;;23.80;99.90;;;;;;5030581;28;19921;-72
2023/07/29 10:47:22;;;;;;;;;;;23.80;99.90;;;;;;5006987;28;19928;-71
2023/07/29 10:49:51;;;;;;;;;;;23.70;99.90;;;;;;5006440;28;19986;-73
2023/07/29 10:52:30;;;;;;;;;;;23.60;99.90;;;;;;5008577;28;20392;-72
2023/07/29 10:54:59;;;;;;;;;;;23.60;99.90;;;;;;5008200;28;20417;-71
2023/07/29 10:57:31;;;;;;;;;;;23.30;99.90;;;;;;5007533;28;19929;-71
2023/07/29 10:59:59;;;;;;;;;;;23.00;99.90;;;;;;5009979;28;20376;-72
2023/07/29 11:02:31;;;;;;;;;;;22.90;99.90;;;;;;5011026;28;19928;-73
2023/07/29 11:04:59;;;;;;;;;;;22.90;99.90;;;;;;5009946;28;19929;-71
2023/07/29 11:07:27;;;;;;;;;;;22.90;99.90;;;;;;5011371;28;20392;-72
2023/07/29 11:09:58;;;;;;;;;;;22.90;99.90;;;;;;5015229;28;19921;-73
2023/07/29 11:12:35;;;;;;;;;;;23.00;99.90;;;;;;5009820;28;19921;-74
2023/07/29 11:15:04;;;;;;;;;;;23.10;99.90;;;;;;5009501;28;19921;-73
2023/07/29 11:17:34;;;;;;;;;;;23.20;99.90;;;;;;5009257;28;19925;-73
2023/07/29 11:20:02;;;;;;;;;;;23.20;99.90;;;;;;5010721;28;19956;-73
2023/07/29 11:22:30;;;;;;;;;;;23.70;99.90;;;;;;5009184;28;20406;-73
2023/07/29 11:25:02;;;;;;;;;;;24.30;99.90;;;;;;5009172;28;19927;-73
2023/07/29 11:27:30;;;;;;;;;;;25.10;99.90;;;;;;5018260;28;20311;-73
2023/07/29 11:29:58;;;;;;;;;;;25.80;99.90;;;;;;5015569;28;19987;-74
2023/07/29 11:32:26;;;;;;;;;;;26.20;99.90;;;;;;5019517;28;19928;-73
2023/07/29 11:34:54;;;;;;;;;;;26.60;99.90;;;;;;5010274;28;19921;-71
2023/07/29 11:37:22;;;;;;;;;;;26.90;99.90;;;;;;5014302;28;19921;-71
2023/07/29 11:39:51;;;;;;;;;;;27.10;99.90;;;;;;5012936;28;19925;-71
2023/07/29 11:42:20;;;;;;;;;;;27.00;99.90;;;;;;5015604;28;20004;-70
2023/07/29 11:44:47;;;;;;;;;;;27.30;99.90;;;;;;5009121;28;19921;-71
2023/07/29 11:47:15;;;;;;;;;;;27.60;99.90;;;;;;5012590;28;19929;-71
2023/07/29 11:49:43;;;;;;;;;;;27.80;99.90;;;;;;5005751;28;19930;-72
2023/07/29 11:52:11;;;;;;;;;;;27.70;99.90;;;;;;5012690;28;19929;-70
2023/07/29 11:54:39;;;;;;;;;;;28.10;99.90;;;;;;5009674;28;19925;-71
2023/07/29 11:57:07;;;;;;;;;;;28.30;99.90;;;;;;5013715;28;19929;-72
2023/07/29 11:59:38;;;;;;;;;;;28.90;99.90;;;;;;5005971;28;20389;-72
2023/07/29 12:02:09;;;;;;;;;;;28.80;99.90;;;;;;5013681;28;19936;-70
2023/07/29 12:04:37;;;;;;;;;;;28.60;99.90;;;;;;5013889;28;19971;-69
2023/07/29 12:07:05;;;;;;;;;;;28.10;99.90;;;;;;5020669;28;19928;-71
2023/07/29 12:09:33;;;;;;;;;;;27.70;99.90;;;;;;5015425;28;19921;-72
2023/07/29 12:12:01;;;;;;;;;;;27.30;99.90;;;;;;5013467;28;19936;-71
2023/07/29 12:14:29;;;;;;;;;;;27.00;99.90;;;;;;5021981;28;19983;-72
2023/07/29 12:17:00;;;;;;;;;;;26.70;99.90;;;;;;5036328;28;19925;-70
2023/07/29 12:19:32;;;;;;;;;;;26.30;99.90;;;;;;5013217;28;19929;-71
2023/07/29 12:22:00;;;;;;;;;;;26.20;99.90;;;;;;5014567;28;19925;-72
2023/07/29 12:24:28;;;;;;;;;;;26.70;99.90;;;;;;5015627;28;19928;-70
2023/07/29 12:26:55;;;;;;;;;;;27.10;99.90;;;;;;5014698;28;19921;-72
2023/07/29 12:29:23;;;;;;;;;;;27.50;99.90;;;;;;5014934;28;20288;-71
2023/07/29 12:31:59;;;;;;;;;;;28.00;99.90;;;;;;5015835;28;19988;-71
2023/07/29 12:34:27;;;;;;;;;;;28.30;99.90;;;;;;5010438;28;19929;-71
2023/07/29 12:36:56;;;;;;;;;;;28.60;99.90;;;;;;5015830;28;19957;-71
2023/07/29 12:39:27;;;;;;;;;;;28.80;99.90;;;;;;5011729;28;19999;-72
2023/07/29 12:41:56;;;;;;;;;;;29.10;99.90;;;;;;5012146;28;19964;-71
2023/07/29 12:44:24;;;;;;;;;;;29.40;99.90;;;;;;5011022;28;20453;-70
2023/07/29 12:46:51;;;;;;;;;;;29.10;99.90;;;;;;5007961;28;20299;-72
2023/07/29 12:49:22;;;;;;;;;;;28.70;99.90;;;;;;5008607;28;20380;-71
2023/07/29 12:51:49;;;;;;;;;;;28.10;99.90;;;;;;5008582;28;19925;-72
2023/07/29 12:54:19;;;;;;;;;;;27.70;99.90;;;;;;5007550;28;19922;-71
2023/07/29 12:56:47;;;;;;;;;;;27.30;99.90;;;;;;5009198;28;20522;-70
2023/07/29 12:59:14;;;;;;;;;;;27.00;99.90;;;;;;5009305;28;19921;-70
2023/07/29 13:01:42;;;;;;;;;;;26.60;99.90;;;;;;5010754;28;20371;-71
2023/07/29 13:04:10;;;;;;;;;;;26.40;99.90;;;;;;5010340;28;20319;-72
2023/07/29 13:06:39;;;;;;;;;;;26.20;99.90;;;;;;5009518;28;19922;-72
2023/07/29 13:09:08;;;;;;;;;;;26.00;99.90;;;;;;5009042;28;19925;-72
2023/07/29 13:11:35;;;;;;;;;;;26.00;99.90;;;;;;5009963;28;19968;-73
2023/07/29 13:14:03;;;;;;;;;;;25.80;99.90;;;;;;5011252;28;20300;-72
2023/07/29 13:16:31;;;;;;;;;;;25.90;99.90;;;;;;5008981;28;20376;-72
2023/07/29 13:18:59;;;;;;;;;;;25.90;99.90;;;;;;5009887;28;20019;-73
2023/07/29 13:21:27;;;;;;;;;;;26.30;99.90;;;;;;5007658;28;19925;-73
2023/07/29 13:23:56;;;;;;;;;;;26.40;99.90;;;;;;5010979;28;20001;-73
2023/07/29 13:26:24;;;;;;;;;;;26.40;99.90;;;;;;5008854;28;19976;-73
2023/07/29 13:28:52;;;;;;;;;;;26.30;99.90;;;;;;5008629;28;19928;-73
2023/07/29 13:31:20;;;;;;;;;;;26.20;99.90;;;;;;5013164;28;20315;-73
2023/07/29 13:33:47;;;;;;;;;;;26.00;99.90;;;;;;5013626;28;19976;-72
2023/07/29 13:36:15;;;;;;;;;;;25.80;99.90;;;;;;5008207;28;19929;-72
2023/07/29 13:38:43;;;;;;;;;;;25.70;99.90;;;;;;5014682;28;19921;-73
2023/07/29 13:41:12;;;;;;;;;;;25.90;99.90;;;;;;5014282;28;19929;-72
2023/07/29 13:43:40;;;;;;;;;;;26.40;99.90;;;;;;5015043;28;20009;-72
2023/07/29 13:46:08;;;;;;;;;;;27.10;99.90;;;;;;5020298;28;19921;-73
2023/07/29 13:48:35;;;;;;;;;;;27.60;99.90;;;;;;5026417;28;19921;-73
2023/07/29 13:51:03;;;;;;;;;;;28.20;99.90;;;;;;5021864;28;19970;-73
2023/07/29 13:53:31;;;;;;;;;;;28.80;99.90;;;;;;5010540;28;19933;-73
2023/07/29 13:55:59;;;;;;;;;;;29.40;99.90;;;;;;5006083;28;19933;-74
2023/07/29 13:58:28;;;;;;;;;;;29.70;99.90;;;;;;5011770;28;19925;-71
2023/07/29 14:00:55;;;;;;;;;;;29.80;99.90;;;;;;5015689;28;19930;-71
2023/07/29 14:03:26;;;;;;;;;;;30.10;99.90;;;;;;5011547;28;19925;-73
2023/07/29 14:05:54;;;;;;;;;;;30.50;99.90;;;;;;5015251;28;19932;-74
2023/07/29 14:08:23;;;;;;;;;;;30.20;99.90;;;;;;5011383;28;19936;-73
2023/07/29 14:10:51;;;;;;;;;;;29.90;99.90;;;;;;5011960;28;19929;-73
2023/07/29 14:13:18;;;;;;;;;;;29.50;99.90;;;;;;5011629;28;20403;-73
2023/07/29 14:15:48;;;;;;;;;;;29.30;99.90;;;;;;5016266;28;19920;-73
2023/07/29 14:18:16;;;;;;;;;;;29.20;99.90;;;;;;5010542;28;19948;-72
2023/07/29 14:20:43;;;;;;;;;;;29.20;99.90;;;;;;5011723;28;20304;-73
2023/07/29 14:23:11;;;;;;;;;;;29.30;99.90;;;;;;5012837;28;20384;-74